Time;durP1;ratioP1;P1;durP2;ratioP2;P2;SDS_P1;SDS_P2;PMS_P1;PMS_P2;Temp;Humidity;BMP_temperature;BMP_pressure;BME280_temperature;BME280_humidity;BME280_pressure;Samples;Min_cycle;Max_cycle;Signal;HPM_P1;HPM_P2
2022/06/04 00:00:35;;;;;;;4.70;1.90;;;;;;;21.24;85.40;101799.09;5027535;28;20001;-59
2022/06/04 00:03:02;;;;;;;3.80;2.03;;;;;;;21.17;86.79;101803.84;5030472;28;20052;-59
2022/06/04 00:05:30;;;;;;;5.30;2.15;;;;;;;21.20;88.84;101806.06;5029800;28;20268;-59
2022/06/04 00:07:58;;;;;;;3.67;2.23;;;;;;;21.01;88.97;101811.75;5030263;28;20102;-58
2022/06/04 00:16:00;;;;;;;4.83;2.40;;;;;;;21.11;88.89;101810.28;5027928;28;20282;-61
2022/06/04 00:18:26;;;;;;;5.32;2.30;;;;;;;21.00;89.42;101807.38;5030330;28;20461;-60
2022/06/04 00:20:54;;;;;;;3.58;2.50;;;;;;;20.83;91.17;101799.13;5027658;28;20041;-61
2022/06/04 00:23:20;;;;;;;7.40;2.70;;;;;;;20.93;91.17;101798.50;5031098;28;20041;-57
2022/06/04 00:25:49;;;;;;;;;;;;;;;20.81;93.53;101797.75;5018856;28;20271;-60
2022/06/04 00:28:16;;;;;;;4.50;2.27;;;;;;;20.70;93.62;101800.19;5027731;28;19913;-60
2022/06/04 00:30:41;;;;;;;7.60;2.30;;;;;;;20.82;92.51;101804.81;5015882;28;20295;-59
2022/06/04 00:33:07;;;;;;;3.00;1.73;;;;;;;20.71;92.85;101810.00;5022982;28;20284;-60
2022/06/04 00:35:34;;;;;;;5.65;2.00;;;;;;;20.67;93.76;101814.28;5011465;28;20080;-60
2022/06/04 00:38:01;;;;;;;3.40;2.20;;;;;;;20.57;97.63;101816.78;5026304;28;20073;-59
2022/06/04 00:40:35;;;;;;;4.60;2.13;;;;;;;20.76;93.47;101803.84;5012167;28;20315;-60
2022/06/04 00:43:01;;;;;;;4.57;2.10;;;;;;;20.63;95.22;101796.81;5018335;28;20302;-59
2022/06/04 00:45:36;;;;;;;8.27;2.33;;;;;;;20.47;95.03;101801.09;5030988;28;20275;-59
2022/06/04 00:48:06;;;;;;;5.20;2.20;;;;;;;20.75;93.48;101799.50;5015893;28;20063;-59
2022/06/04 00:50:34;;;;;;;6.73;2.37;;;;;;;20.80;93.25;101790.66;5027301;28;20278;-60
2022/06/04 00:53:03;;;;;;;6.47;2.13;;;;;;;20.63;93.83;101789.47;5017545;28;20274;-60
2022/06/04 00:55:40;;;;;;;4.53;2.10;;;;;;;20.60;93.44;101794.56;5020045;28;20276;-60
2022/06/04 00:58:18;;;;;;;3.70;2.13;;;;;;;19.72;100.00;101785.25;5026752;28;20279;-60
2022/06/04 01:01:03;;;;;;;5.63;2.00;;;;;;;19.69;100.00;101788.41;5028094;28;20316;-60
2022/06/04 01:03:42;;;;;;;8.80;2.93;;;;;;;19.19;100.00;101798.56;5020346;28;20042;-60
2022/06/04 01:06:25;;;;;;;4.67;2.50;;;;;;;19.99;100.00;101800.28;5026806;28;20274;-60
2022/06/04 01:09:06;;;;;;;7.13;2.33;;;;;;;20.17;98.41;101802.03;5016135;28;20290;-60
2022/06/04 01:12:10;;;;;;;3.40;2.20;;;;;;;20.34;99.79;101807.59;5019540;28;20276;-60
2022/06/04 01:14:44;;;;;;;6.03;2.60;;;;;;;20.05;99.82;101810.19;5027219;28;20284;-60
2022/06/04 01:17:22;;;;;;;4.43;2.50;;;;;;;20.33;99.93;101819.53;5021635;28;20303;-60
2022/06/04 01:20:05;;;;;;;8.43;2.50;;;;;;;20.37;95.13;101818.00;5020882;28;20271;-60
2022/06/04 01:23:11;;;;;;;5.40;2.50;;;;;;;20.26;96.77;101833.22;5030399;28;20286;-60
2022/06/04 01:26:03;;;;;;;4.23;2.10;;;;;;;20.85;91.01;101839.69;5025705;28;20267;-59
2022/06/04 01:28:32;;;;;;;5.40;2.93;;;;;;;20.47;96.62;101834.50;5017518;28;20264;-61
2022/06/04 01:31:06;;;;;;;7.87;2.57;;;;;;;20.10;99.30;101837.50;5027454;28;20268;-60
2022/06/04 01:33:39;;;;;;;5.27;2.30;;;;;;;20.18;97.50;101847.97;5024751;28;20341;-59
2022/06/04 01:36:19;;;;;;;8.73;2.93;;;;;;;20.82;91.91;101857.28;5018580;28;20287;-59
2022/06/04 01:38:49;;;;;;;4.70;2.43;;;;;;;20.62;93.24;101863.09;5018420;28;20282;-60
2022/06/04 01:41:22;;;;;;;5.17;2.57;;;;;;;20.34;95.68;101870.88;5025033;28;20314;-60
2022/06/04 01:43:53;;;;;;;8.87;3.10;;;;;;;20.58;93.76;101861.91;5026853;28;20286;-60
2022/06/04 01:46:24;;;;;;;6.57;2.63;;;;;;;20.48;94.35;101855.16;5016197;28;20283;-60
2022/06/04 01:48:54;;;;;;;3.87;2.50;;;;;;;20.75;98.02;101846.50;5018966;28;20361;-59
2022/06/04 01:51:23;;;;;;;6.63;2.93;;;;;;;20.99;93.00;101851.94;5024377;28;20351;-60
2022/06/04 01:53:53;;;;;;;6.57;2.87;;;;;;;20.67;94.18;101862.38;5026833;28;20289;-59
2022/06/04 01:56:34;;;;;;;5.10;2.43;;;;;;;20.81;94.69;101861.06;5016985;28;20288;-60
2022/06/04 01:59:21;;;;;;;6.03;2.73;;;;;;;20.61;94.73;101858.72;5027036;28;20283;-59
2022/06/04 02:01:50;;;;;;;3.93;2.60;;;;;;;20.79;93.13;101852.31;5026417;28;20303;-60
2022/06/04 02:04:21;;;;;;;8.80;2.90;;;;;;;20.57;94.21;101860.25;5016933;28;20276;-59
2022/06/04 02:09:41;;;;;;;6.70;2.80;;;;;;;20.36;96.83;101859.81;5024838;28;20286;-59
2022/06/04 02:12:10;;;;;;;6.67;3.03;;;;;;;20.29;97.60;101854.47;5017997;28;20288;-60
2022/06/04 02:14:36;;;;;;;5.77;2.90;;;;;;;20.35;98.50;101848.09;5029863;28;20271;-60
2022/06/04 02:17:04;;;;;;;;;;;;;;;20.11;100.00;101857.31;5020634;28;20287;-60
2022/06/04 02:19:30;;;;;;;7.17;3.03;;;;;;;20.16;100.00;101855.53;5022564;28;19978;-58
2022/06/04 02:21:56;;;;;;;7.22;2.90;;;;;;;20.10;100.00;101859.22;5027406;28;20307;-61
2022/06/04 02:24:21;;;;;;;9.30;3.78;;;;;;;20.09;100.00;101865.69;5016751;28;20057;-60
2022/06/04 02:26:48;;;;;;;6.22;2.47;;;;;;;20.14;100.00;101856.84;5028390;28;20061;-61
2022/06/04 02:29:15;;;;;;;8.30;3.17;;;;;;;19.60;100.00;101849.50;5021647;28;20034;-60
2022/06/04 02:31:54;;;;;;;5.90;3.17;;;;;;;19.77;100.00;101849.66;5021021;28;20026;-59
2022/06/04 02:34:34;;;;;;;6.40;3.30;;;;;;;19.79;100.00;101850.25;5029546;28;20293;-61
2022/06/04 02:37:32;;;;;;;4.70;2.90;;;;;;;19.68;100.00;101840.22;5019684;28;20299;-61
2022/06/04 02:40:18;;;;;;;12.18;3.55;;;;;;;19.70;100.00;101838.09;5033045;28;20284;-60
2022/06/04 02:43:12;;;;;;;8.18;2.88;;;;;;;19.86;100.00;101842.03;5017403;28;20068;-61
2022/06/04 02:45:56;;;;;;;5.37;2.30;;;;;;;19.52;100.00;101839.81;5021527;28;20038;-60
2022/06/04 02:48:40;;;;;;;7.53;3.20;;;;;;;19.54;100.00;101832.28;5029247;28;20350;-60
2022/06/04 02:51:29;;;;;;;7.83;3.83;;;;;;;19.82;100.00;101838.94;5020159;28;20312;-60
2022/06/04 02:53:56;;;;;;;6.93;3.20;;;;;;;19.87;100.00;101832.81;5001830;28;20272;-61
2022/06/04 02:56:28;;;;;;;8.87;4.40;;;;;;;19.78;100.00;101832.31;5029024;28;20271;-60
2022/06/04 02:58:58;;;;;;;5.87;3.70;;;;;;;19.54;100.00;101821.41;5018154;28;20343;-60
2022/06/04 03:01:25;;;;;;;7.83;3.43;;;;;;;19.38;100.00;101820.19;5032430;28;20366;-60
2022/06/04 03:03:51;;;;;;;8.40;3.37;;;;;;;19.37;100.00;101817.69;5019447;28;20381;-60
2022/06/04 03:06:26;;;;;;;12.85;4.20;;;;;;;19.31;100.00;101828.44;5028945;28;20279;-61
2022/06/04 03:08:53;;;;;;;7.30;3.63;;;;;;;19.29;100.00;101825.13;5018008;28;20080;-60
2022/06/04 03:11:19;;;;;;;7.73;3.67;;;;;;;19.47;100.00;101824.22;5023768;28;20278;-60
2022/06/04 03:13:45;;;;;;;6.30;3.70;;;;;;;18.72;100.00;101817.25;5024914;28;20085;-60
2022/06/04 03:16:12;;;;;;;;;;;;;;;18.99;100.00;101814.25;5017094;28;20328;-60
2022/06/04 03:18:37;;;;;;;8.70;3.50;;;;;;;19.18;100.00;101807.75;5028754;28;19914;-60
2022/06/04 03:21:05;;;;;;;11.07;3.97;;;;;;;19.25;100.00;101796.81;5012593;28;20309;-60
2022/06/04 03:23:31;;;;;;;8.57;4.00;;;;;;;19.15;100.00;101800.06;5022698;28;20042;-60
2022/06/04 03:25:56;;;;;;;6.55;3.60;;;;;;;19.26;100.00;101801.19;5001338;28;20286;-60
2022/06/04 03:28:23;;;;;;;6.97;3.67;;;;;;;19.29;100.00;101800.72;5027592;28;20046;-61
2022/06/04 03:30:48;;;;;;;7.60;3.45;;;;;;;19.17;100.00;101799.84;5016905;28;20079;-60
2022/06/04 03:33:13;;;;;;;10.60;3.40;;;;;;;19.37;100.00;101806.84;5023983;28;20072;-60
2022/06/04 03:35:39;;;;;;;9.83;3.50;;;;;;;19.30;100.00;101815.13;5023689;28;20053;-60
2022/06/04 03:38:04;;;;;;;12.10;4.80;;;;;;;19.09;100.00;101800.16;5017036;28;20082;-60
2022/06/04 03:40:30;;;;;;;9.33;3.80;;;;;;;19.25;100.00;101810.38;5027933;28;20034;-60
2022/06/04 03:42:56;;;;;;;10.83;4.03;;;;;;;19.08;100.00;101815.63;5017700;28;20306;-61
2022/06/04 03:45:24;;;;;;;10.40;4.10;;;;;;;19.16;100.00;101822.59;5022844;28;20276;-60
2022/06/04 03:47:50;;;;;;;9.33;4.07;;;;;;;19.47;100.00;101821.50;5025181;28;20038;-60
2022/06/04 03:50:17;;;;;;;7.38;3.13;;;;;;;19.53;100.00;101808.91;5015540;28;20279;-60
2022/06/04 03:52:45;;;;;;;9.23;3.97;;;;;;;19.65;100.00;101811.66;4998602;28;20058;-62
2022/06/04 03:55:12;;;;;;;7.00;4.33;;;;;;;19.44;100.00;101813.84;5024362;28;20327;-60
2022/06/04 03:57:42;;;;;;;10.87;3.87;;;;;;;19.55;100.00;101822.25;5023404;28;20271;-60
2022/06/04 04:00:19;;;;;;;5.53;3.40;;;;;;;19.16;100.00;101826.13;5016481;28;20268;-60
2022/06/04 04:02:46;;;;;;;;;;;;;;;19.27;100.00;101821.81;5016211;28;20272;-61
2022/06/04 04:05:17;;;;;;;8.75;4.25;;;;;;;19.27;100.00;101821.00;5024135;28;19935;-61
2022/06/04 04:07:43;;;;;;;6.10;4.17;;;;;;;19.26;100.00;101825.59;5023686;28;20089;-57
2022/06/04 04:10:10;;;;;;;8.52;4.00;;;;;;;19.30;100.00;101832.19;5016521;28;20276;-61
2022/06/04 04:12:37;;;;;;;10.57;4.53;;;;;;;19.35;100.00;101843.16;5027990;28;20033;-61
2022/06/04 04:15:03;;;;;;;7.50;3.75;;;;;;;19.13;100.00;101844.72;5017974;28;20271;-61
2022/06/04 04:17:28;;;;;;;12.30;3.70;;;;;;;19.17;100.00;101848.66;5021757;28;20046;-60
2022/06/04 04:19:54;;;;;;;6.43;3.20;;;;;;;18.90;100.00;101836.22;5011738;28;20038;-61
2022/06/04 04:22:20;;;;;;;10.45;3.97;;;;;;;18.34;100.00;101838.09;5027811;28;20202;-61
2022/06/04 04:24:46;;;;;;;12.35;4.50;;;;;;;18.39;100.00;101838.25;5015655;28;20037;-61
2022/06/04 04:27:11;;;;;;;11.02;4.53;;;;;;;19.41;100.00;101832.47;5024105;28;20049;-61
2022/06/04 04:29:38;;;;;;;16.08;4.45;;;;;;;19.57;100.00;101837.22;5022250;28;20041;-61
2022/06/04 04:32:04;;;;;;;6.50;4.18;;;;;;;19.68;100.00;101842.94;5016788;28;20058;-60
2022/06/04 04:34:30;;;;;;;9.30;4.37;;;;;;;19.49;100.00;101838.41;5027647;28;20034;-60
2022/06/04 04:36:55;;;;;;;15.07;4.80;;;;;;;19.61;100.00;101832.19;5016669;28;20301;-60
2022/06/04 04:39:21;;;;;;;20.23;10.77;;;;;;;19.77;100.00;101844.25;5022523;28;20129;-61
2022/06/04 04:41:47;;;;;;;19.58;8.55;;;;;;;19.84;100.00;101858.56;5011296;28;20145;-61
2022/06/04 04:44:12;;;;;;;17.35;7.93;;;;;;;19.97;100.00;101856.69;5026853;28;20045;-60
2022/06/04 04:46:38;;;;;;;9.45;4.03;;;;;;;19.65;100.00;101859.69;5014894;28;20046;-59
2022/06/04 04:49:04;;;;;;;10.65;5.03;;;;;;;19.78;100.00;101864.88;5024890;28;20035;-60
2022/06/04 04:51:30;;;;;;;9.82;5.85;;;;;;;19.98;100.00;101871.94;5020000;28;20053;-60
2022/06/04 04:53:56;;;;;;;;;;;;;;;20.18;100.00;101864.28;5018164;28;20042;-60
2022/06/04 04:56:24;;;;;;;14.67;6.33;;;;;;;19.97;100.00;101868.41;5027373;28;19913;-61
2022/06/04 04:58:50;;;;;;;11.73;4.80;;;;;;;20.44;100.00;101867.59;5011264;28;20030;-61
2022/06/04 05:01:26;;;;;;;18.65;7.38;;;;;;;20.44;100.00;101875.72;5018918;28;20311;-60
2022/06/04 05:03:52;;;;;;;11.10;6.43;;;;;;;20.49;100.00;101870.41;5018219;28;20038;-60
2022/06/04 05:06:19;;;;;;;14.40;4.87;;;;;;;20.34;100.00;101878.22;5027275;28;20291;-62
2022/06/04 05:08:46;;;;;;;8.67;4.30;;;;;;;20.19;100.00;101871.38;5014660;28;20265;-59
2022/06/04 05:11:16;;;;;;;12.83;5.93;;;;;;;20.61;100.00;101872.31;5023392;28;20294;-61
2022/06/04 05:13:43;;;;;;;9.23;4.03;;;;;;;20.65;100.00;101878.09;5022294;28;20271;-61
2022/06/04 05:16:09;;;;;;;9.52;4.60;;;;;;;20.46;100.00;101870.88;5015874;28;20276;-60
2022/06/04 05:18:34;;;;;;;9.32;4.15;;;;;;;20.25;100.00;101890.50;5027027;28;20066;-60
2022/06/04 05:21:23;;;;;;;12.10;4.77;;;;;;;20.42;100.00;101886.00;5010880;28;20034;-60
2022/06/04 05:23:49;;;;;;;23.97;11.10;;;;;;;20.44;100.00;101878.44;5011122;28;20034;-60
2022/06/04 05:26:16;;;;;;;23.63;8.85;;;;;;;20.87;100.00;101883.75;5026581;28;20768;-62
2022/06/04 05:28:42;;;;;;;7.27;3.70;;;;;;;20.59;100.00;101885.31;5011291;28;20030;-60
2022/06/04 05:31:10;;;;;;;14.47;5.10;;;;;;;20.70;100.00;101881.72;5016608;28;20303;-60
2022/06/04 05:33:36;;;;;;;18.63;5.70;;;;;;;20.50;100.00;101882.13;5020091;28;20340;-60
2022/06/04 05:36:02;;;;;;;9.07;5.07;;;;;;;21.01;100.00;101876.16;5024489;28;20305;-62
2022/06/04 05:38:28;;;;;;;9.30;5.10;;;;;;;20.98;100.00;101874.72;5013008;28;20045;-60
2022/06/04 05:41:02;;;;;;;10.73;5.07;;;;;;;21.19;100.00;101872.44;5015175;28;20339;-61
2022/06/04 05:43:28;;;;;;;9.77;4.93;;;;;;;20.96;100.00;101857.03;5004113;28;20049;-61
2022/06/04 05:46:02;;;;;;;12.70;5.22;;;;;;;20.75;100.00;101868.25;5023303;28;20274;-61
2022/06/04 05:48:28;;;;;;;12.23;5.43;;;;;;;21.18;100.00;101871.63;5013652;28;20058;-61
2022/06/04 05:50:55;;;;;;;12.82;5.40;;;;;;;21.20;100.00;101871.34;5025788;28;20272;-61
2022/06/04 05:53:22;;;;;;;9.30;5.73;;;;;;;21.56;100.00;101876.63;5018770;28;20049;-61
2022/06/04 05:55:48;;;;;;;14.00;4.87;;;;;;;21.17;100.00;101878.13;5018427;28;20296;-60
2022/06/04 05:58:14;;;;;;;14.63;4.80;;;;;;;21.07;100.00;101886.06;5025728;28;20045;-60
2022/06/04 06:00:40;;;;;;;20.98;10.63;;;;;;;21.14;100.00;101886.78;5011171;28;20062;-60
2022/06/04 06:03:05;;;;;;;14.90;4.95;;;;;;;20.95;100.00;101890.72;5019251;28;20032;-61
2022/06/04 06:05:32;;;;;;;9.07;4.90;;;;;;;21.15;100.00;101903.91;5023989;28;20034;-60
2022/06/04 06:07:59;;;;;;;11.02;5.20;;;;;;;21.10;100.00;101909.25;5027051;28;20030;-62
2022/06/04 06:10:25;;;;;;;13.53;5.53;;;;;;;21.02;100.00;101911.28;5016887;28;20136;-61
2022/06/04 06:12:50;;;;;;;9.63;5.18;;;;;;;21.10;100.00;101912.78;5029523;28;20280;-60
2022/06/04 06:15:16;;;;;;;7.57;4.35;;;;;;;21.16;100.00;101916.44;5021264;28;20038;-60
2022/06/04 06:17:42;;;;;;;7.88;4.78;;;;;;;21.16;100.00;101909.09;5022391;28;20093;-61
2022/06/04 06:20:08;;;;;;;15.17;6.47;;;;;;;21.35;100.00;101912.47;5028032;28;20045;-60
2022/06/04 06:22:35;;;;;;;11.00;4.90;;;;;;;21.32;100.00;101914.84;5016596;28;20042;-60
2022/06/04 06:25:05;;;;;;;7.10;3.80;;;;;;;21.26;100.00;101913.94;5027954;28;20276;-60
2022/06/04 06:27:31;;;;;;;9.80;4.83;;;;;;;21.39;100.00;101923.69;5022761;28;20263;-61
2022/06/04 06:29:57;;;;;;;;;;;;;;;21.49;100.00;101909.47;5020795;28;20287;-60
2022/06/04 06:32:23;;;;;;;14.20;5.37;;;;;;;21.73;100.00;101923.00;5029137;28;19945;-62
2022/06/04 06:34:50;;;;;;;8.30;5.10;;;;;;;21.56;100.00;101920.19;5016824;28;20060;-62
2022/06/04 06:37:15;;;;;;;13.05;4.75;;;;;;;21.72;100.00;101938.50;5033108;28;20275;-61
2022/06/04 06:39:41;;;;;;;17.23;5.35;;;;;;;21.95;100.00;101946.81;5022360;28;20085;-60
2022/06/04 06:42:06;;;;;;;13.80;5.30;;;;;;;21.94;100.00;101939.72;5024658;28;20034;-60
2022/06/04 06:44:55;;;;;;;7.97;4.33;;;;;;;22.16;100.00;101940.63;5027866;28;20064;-61
2022/06/04 06:47:21;;;;;;;12.67;5.43;;;;;;;22.18;100.00;101941.22;5026905;28;20276;-60
2022/06/04 06:49:46;;;;;;;;;;;;;;;22.03;100.00;101946.38;5027488;28;20030;-60
2022/06/04 06:52:13;;;;;;;16.83;7.03;;;;;;;22.26;100.00;101944.59;5029572;28;19944;-60
2022/06/04 06:54:39;;;;;;;8.70;4.30;;;;;;;22.23;100.00;101950.53;5031673;28;20040;-61
2022/06/04 06:57:07;;;;;;;8.77;4.57;;;;;;;22.08;100.00;101954.63;5014558;28;20034;-60
2022/06/04 06:59:33;;;;;;;10.83;4.53;;;;;;;;;;5030233;28;20042;-61
2022/06/04 07:01:59;;;;;;;12.98;4.10;;;;;;;22.42;98.59;101953.81;5031328;28;20313;-61
2022/06/04 07:04:26;;;;;;;7.82;4.90;;;;;;;22.34;99.41;101952.34;5031244;28;20030;-59
2022/06/04 07:06:55;;;;;;;15.70;5.53;;;;;;;22.68;97.02;101952.34;5031501;28;20105;-60
2022/06/04 07:09:25;;;;;;;10.57;5.20;;;;;;;22.89;94.69;101947.19;5031575;28;20041;-60
2022/06/04 07:11:52;;;;;;;7.13;3.87;;;;;;;23.30;89.99;101945.00;5031385;28;20022;-61
2022/06/04 07:14:18;;;;;;;;;;;;;;;23.01;91.78;101945.16;5031181;28;20032;-60
2022/06/04 07:16:43;;;;;;;10.63;4.17;;;;;;;23.41;88.32;101947.84;5031506;28;19937;-60
2022/06/04 07:19:13;;;;;;;9.85;5.18;;;;;;;23.01;92.31;101944.34;5031263;28;20044;-60
2022/06/04 07:21:40;;;;;;;10.10;5.03;;;;;;;22.66;95.06;101937.31;5031447;28;20059;-58
2022/06/04 07:24:06;;;;;;;;;;;;;;;22.97;93.28;101938.56;5029199;28;20034;-60
2022/06/04 07:26:32;;;;;;;14.53;5.53;;;;;;;23.08;92.40;101944.16;5030474;28;19935;-59
2022/06/04 07:28:58;;;;;;;10.90;4.63;;;;;;;23.13;90.49;101944.22;4995897;28;20508;-61
2022/06/04 07:31:23;;;;;;;10.10;5.00;;;;;;;23.33;89.41;101946.41;5019754;28;20045;-60
2022/06/04 07:33:52;;;;;;;11.75;4.88;;;;;;;23.42;91.11;101950.34;5012217;28;20050;-61
2022/06/04 07:36:27;;;;;;;11.07;4.60;;;;;;;23.58;90.20;101954.06;5010734;28;20068;-59
2022/06/04 07:38:53;;;;;;;9.23;4.17;;;;;;;23.41;89.64;101948.69;5028003;28;20056;-59
2022/06/04 07:41:20;;;;;;;;;;;;;;;23.31;88.77;101954.00;5012548;28;20039;-61
2022/06/04 07:43:46;;;;;;;10.98;3.92;;;;;;;23.29;90.01;101946.06;5023464;28;19910;-61
2022/06/04 07:46:12;;;;;;;;;;;;;;;23.68;85.38;101936.13;5032504;28;20038;-62
2022/06/04 07:48:38;;;;;;;7.33;3.80;;;;;;;23.34;88.86;101948.88;5013689;28;19914;-59
2022/06/04 07:51:05;;;;;;;12.17;5.27;;;;;;;23.40;89.43;101948.94;5017736;28;20045;-61
2022/06/04 07:53:31;;;;;;;8.50;4.78;;;;;;;23.42;88.66;101954.97;5031758;28;20069;-60
2022/06/04 07:55:56;;;;;;;10.23;4.60;;;;;;;23.52;88.58;101951.53;5019384;28;20030;-59
2022/06/04 07:58:23;;;;;;;9.38;3.47;;;;;;;23.17;90.54;101948.09;5012280;28;20049;-60
2022/06/04 08:00:55;;;;;;;;;;;;;;;23.03;92.12;101945.72;5031679;28;20038;-60
2022/06/04 08:03:20;;;;;;;8.33;4.10;;;;;;;23.25;90.12;101944.94;5023945;28;19931;-61
2022/06/04 08:05:46;;;;;;;11.77;3.83;;;;;;;23.37;89.80;101946.72;5012110;28;20069;-61
2022/06/04 08:08:11;;;;;;;8.05;4.10;;;;;;;23.16;89.76;101940.97;5026133;28;20045;-60
2022/06/04 08:10:37;;;;;;;7.20;4.40;;;;;;;23.31;90.13;101943.09;5014898;28;20049;-60
2022/06/04 08:13:08;;;;;;;;;;;;;;;23.50;88.05;101943.56;5026434;28;20041;-59
2022/06/04 08:15:35;;;;;;;9.27;4.47;;;;;;;23.42;89.50;101946.78;5021205;28;20586;-60
2022/06/04 08:18:00;;;;;;;9.70;4.10;;;;;;;23.57;87.52;101944.22;5018146;28;20117;-62
2022/06/04 08:20:27;;;;;;;8.83;4.03;;;;;;;23.42;89.09;101946.78;5011771;28;20052;-60
2022/06/04 08:22:52;;;;;;;7.40;4.40;;;;;;;23.72;87.16;101949.00;5027420;28;20046;-61
2022/06/04 08:25:18;;;;;;;10.10;3.90;;;;;;;23.91;87.16;101954.09;5018697;28;20064;-60
2022/06/04 08:27:44;;;;;;;9.40;4.50;;;;;;;23.83;87.60;101952.66;5020721;28;20105;-62
2022/06/04 08:30:10;;;;;;;;;;;;;;;24.02;86.80;101949.59;5012078;28;20045;-62
2022/06/04 08:32:36;;;;;;;10.83;4.63;;;;;;;24.25;85.20;101953.88;5027599;28;19918;-61
2022/06/04 08:35:02;;;;;;;8.95;3.28;;;;;;;24.26;83.55;101954.72;5016651;28;20080;-61
2022/06/04 08:37:28;;;;;;;11.47;4.17;;;;;;;24.59;81.65;101955.47;5022480;28;20038;-61
2022/06/04 08:39:54;;;;;;;13.18;5.15;;;;;;;24.86;79.97;101966.34;5023426;28;20038;-60
2022/06/04 08:42:35;;;;;;;23.15;9.45;;;;;;;24.53;80.71;101962.00;5015643;28;20046;-61
2022/06/04 08:45:01;;;;;;;7.77;3.80;;;;;;;24.58;79.23;101957.41;5023583;28;20033;-61
2022/06/04 08:47:45;;;;;;;11.23;5.07;;;;;;;24.87;79.16;101956.22;5030004;28;20069;-61
2022/06/04 08:50:14;;;;;;;9.87;4.33;;;;;;;24.90;79.29;101955.69;5029813;28;20041;-60
2022/06/04 08:52:49;;;;;;;8.77;4.30;;;;;;;25.07;77.95;101960.97;5029410;28;20038;-61
2022/06/04 08:58:16;;;;;;;10.27;4.60;;;;;;;25.20;76.20;101954.19;5029310;28;20282;-60
2022/06/04 09:01:00;;;;;;;10.07;4.50;;;;;;;25.17;76.18;101952.78;5025546;28;20033;-60
2022/06/04 09:03:46;;;;;;;6.23;3.93;;;;;;;25.40;75.42;101961.63;5026419;28;20097;-61
2022/06/04 09:06:24;;;;;;;7.80;4.35;;;;;;;25.55;72.82;101960.88;5024628;28;20079;-59
2022/06/04 09:09:03;;;;;;;7.90;3.90;;;;;;;25.58;72.54;101960.34;5021783;28;20046;-61
2022/06/04 09:11:49;;;;;;;8.53;3.97;;;;;;;25.53;72.47;101973.22;5024642;28;20026;-60
2022/06/04 09:14:34;;;;;;;8.80;4.13;;;;;;;25.87;70.93;101967.25;5024823;28;20068;-60
2022/06/04 09:17:05;;;;;;;8.07;3.77;;;;;;;25.80;72.16;101969.44;5025972;28;20042;-59
2022/06/04 09:19:35;;;;;;;8.20;3.50;;;;;;;25.92;70.50;101964.50;5024663;28;20038;-60
2022/06/04 09:22:10;;;;;;;5.87;3.63;;;;;;;26.23;68.47;101956.34;5024240;28;20018;-60
2022/06/04 09:24:37;;;;;;;8.30;4.03;;;;;;;26.18;68.73;101961.78;5027751;28;20079;-60
2022/06/04 09:27:40;;;;;;;10.07;4.20;;;;;;;26.36;67.21;101960.44;5024703;28;20049;-60
2022/06/04 09:30:24;;;;;;;7.43;4.47;;;;;;;26.57;67.29;101966.69;5024961;28;20076;-60
2022/06/04 09:33:10;;;;;;;5.77;3.47;;;;;;;26.68;64.63;101980.41;5029220;28;20046;-59
2022/06/04 09:35:39;;;;;;;7.70;3.20;;;;;;;26.40;65.96;101977.97;5025441;28;20022;-60
2022/06/04 09:38:05;;;;;;;13.90;4.37;;;;;;;26.61;66.53;101972.47;5030027;28;20049;-60
2022/06/04 09:40:34;;;;;;;5.45;3.13;;;;;;;26.77;64.43;101971.34;5030311;28;20038;-60
2022/06/04 09:43:16;;;;;;;10.33;4.43;;;;;;;27.28;63.08;101982.41;5033363;28;20041;-61
2022/06/04 09:45:51;;;;;;;8.73;3.90;;;;;;;27.53;60.76;101983.41;5030828;28;20037;-59
2022/06/04 09:48:25;;;;;;;8.53;4.33;;;;;;;27.86;57.72;101992.03;5033608;28;20049;-60
2022/06/04 09:50:53;;;;;;;28.13;15.27;;;;;;;28.67;54.43;101988.88;5025613;28;20047;-60
2022/06/04 09:53:23;;;;;;;73.63;42.17;;;;;;;29.12;52.69;101996.13;5030678;28;20038;-60
2022/06/04 09:56:04;;;;;;;51.63;29.80;;;;;;;30.01;49.26;101991.03;5026551;28;20045;-61
2022/06/04 09:58:38;;;;;;;24.17;12.65;;;;;;;29.76;49.68;102002.16;5032957;28;20037;-62
2022/06/04 10:01:06;;;;;;;43.28;22.35;;;;;;;29.99;47.81;102002.34;5013457;28;20030;-60
2022/06/04 10:03:38;;;;;;;143.52;66.05;;;;;;;29.61;48.94;101991.34;5013544;28;20038;-58
2022/06/04 10:06:08;;;;;;;127.35;58.72;;;;;;;30.15;48.08;101994.66;5030181;28;20809;-59
2022/06/04 10:11:24;;;;;;;52.10;24.65;;;;;;;29.62;48.74;101996.56;5034201;28;20119;-60
2022/06/04 10:13:53;;;;;;;141.40;74.50;;;;;;;30.45;46.67;102002.72;5031944;28;20038;-60
2022/06/04 10:16:26;;;;;;;139.40;68.80;;;;;;;30.73;46.33;102002.78;5032438;28;20063;-60
2022/06/04 10:18:55;;;;;;;144.52;75.70;;;;;;;30.67;45.87;101996.53;5031821;28;20033;-59
2022/06/04 10:21:32;;;;;;;128.85;62.78;;;;;;;31.32;44.75;101999.41;5031805;28;20052;-60
2022/06/04 10:23:59;;;;;;;73.80;35.83;;;;;;;31.95;43.33;102004.38;5026678;28;20041;-60
2022/06/04 10:26:49;;;;;;;191.45;96.30;;;;;;;31.97;42.10;102007.63;5032720;28;20046;-59
2022/06/04 10:29:29;;;;;;;212.45;106.90;;;;;;;31.94;42.50;102003.53;5019211;28;20055;-56
2022/06/04 10:32:13;;;;;;;49.35;23.83;;;;;;;32.27;41.35;102008.81;5021025;28;20027;-61
2022/06/04 10:34:53;;;;;;;141.48;68.88;;;;;;;32.75;40.68;102010.03;5029647;28;20041;-58
2022/06/04 10:37:58;;;;;;;63.28;31.00;;;;;;;33.08;40.06;102006.09;5032749;28;20026;-60
2022/06/04 10:40:50;;;;;;;25.13;11.70;;;;;;;31.52;41.30;102005.63;5031419;28;20102;-57
2022/06/04 10:43:31;;;;;;;150.65;77.70;;;;;;;32.45;41.24;102001.44;5030447;28;20042;-58
2022/06/04 10:46:19;;;;;;;101.32;46.90;;;;;;;32.45;40.90;102015.28;5031537;28;20038;-60
2022/06/04 10:49:07;;;;;;;79.45;38.80;;;;;;;31.54;42.27;102001.41;5029551;28;20034;-61
2022/06/04 10:51:52;;;;;;;36.50;19.08;;;;;;;31.37;43.17;102004.00;5030228;28;20049;-59
2022/06/04 10:54:40;;;;;;;34.00;17.63;;;;;;;31.25;43.21;101993.47;5030922;28;20097;-57
2022/06/04 10:57:28;;;;;;;37.15;18.15;;;;;;;31.50;42.58;101997.63;5031026;28;20037;-58
2022/06/04 11:00:04;;;;;;;10.93;5.00;;;;;;;31.05;43.42;102001.88;5030654;28;20042;-58
2022/06/04 11:02:54;;;;;;;15.82;8.30;;;;;;;32.12;41.62;101996.19;5031514;28;20034;-59
2022/06/04 11:05:26;;;;;;;19.52;9.27;;;;;;;31.59;42.65;102004.03;5030394;28;20048;-58
2022/06/04 11:08:14;;;;;;;96.35;50.63;;;;;;;31.83;42.10;101993.88;5031399;28;20051;-56
2022/06/04 11:10:47;;;;;;;58.55;30.30;;;;;;;31.66;42.48;102000.06;5031091;28;20080;-59
2022/06/04 11:13:31;;;;;;;43.03;23.63;;;;;;;31.32;43.32;102004.94;5028276;28;20044;-58
2022/06/04 11:16:10;;;;;;;32.65;15.60;;;;;;;31.31;43.58;101998.59;5027508;28;20048;-59
2022/06/04 11:18:46;;;;;;;65.95;34.65;;;;;;;31.43;43.15;101994.47;5030814;28;20062;-58
2022/06/04 11:21:20;;;;;;;;;;;;;;;31.60;43.50;101997.41;5027633;28;20031;-58
2022/06/04 11:24:11;;;;;;;25.60;15.40;;;;;;;31.23;44.08;101995.72;5029127;28;19917;-59
2022/06/04 11:27:11;;;;;;;19.77;10.02;;;;;;;31.40;43.83;101995.09;5028187;28;20041;-58
2022/06/04 11:29:38;;;;;;;9.63;5.22;;;;;;;31.69;43.75;102000.22;4941839;29;20031;-57
2022/06/04 11:32:07;;;;;;;23.67;11.65;;;;;;;31.96;43.02;101997.69;5008899;28;20042;-59
2022/06/04 11:35:03;;;;;;;10.35;5.03;;;;;;;31.40;43.63;101992.34;5015483;28;20109;-58
2022/06/04 11:37:51;;;;;;;12.50;5.97;;;;;;;31.09;44.36;101991.03;5024346;28;20030;-57
2022/06/04 11:40:38;;;;;;;12.95;5.38;;;;;;;31.02;44.68;101991.44;5025336;28;20031;-57
2022/06/04 11:43:31;;;;;;;15.00;6.90;;;;;;;31.59;44.06;101986.66;5030640;28;20104;-58
2022/06/04 11:46:06;;;;;;;16.40;4.80;;;;;;;31.66;43.62;101989.00;5020085;28;20045;-56
2022/06/04 11:48:55;;;;;;;9.02;4.57;;;;;;;32.27;42.70;101988.59;5028263;28;20121;-59
2022/06/04 11:51:30;;;;;;;8.35;4.78;;;;;;;32.57;41.73;102000.03;5018412;28;20055;-58
2022/06/04 11:54:05;;;;;;;7.57;4.65;;;;;;;32.98;40.97;101992.56;5020658;28;20038;-58
2022/06/04 11:56:34;;;;;;;9.35;5.07;;;;;;;33.72;39.36;101990.06;5027807;28;20042;-59